Clearbrook, Washington
Current Conditions -  °F | °C
As of 2:00 AM on Thursday 23 Oct 2014 (Local Time) from CYXX Reporting Station
Scattered Clouds Scattered Clouds  
Wind Chill: 50°   Ceiling: Unl
Heat Index: 50°   Visibility: 15mi
Dew Point: 48°   Wind: 10mph
Humidity: 94%   Direction: 200°SSW
Pressure: 29.67"   Gusts: NA
Location:  48.9612°N, 122.12°W
Report Text: CYXX 230900Z 20009KT 15SM FEW030 SCT070 10/09 A2967 RMK CU2AC2 SLP048
Loading
Personal Weather Stations






























Interactive Weather Map
Tropical Storm Tracking
New forecast layout! Learn more

10-Day Weather Forecast

Advertisements
Track Severe Weather on mobile